Time;durP1;ratioP1;P1;durP2;ratioP2;P2;SDS_P1;SDS_P2;PMS_P1;PMS_P2;Temp;Humidity;BMP_temperature;BMP_pressure;BME280_temperature;BME280_humidity;BME280_pressure;Samples;Min_cycle;Max_cycle;Signal;HPM_P1;HPM_P2
2023/06/24 00:02:01;;;;;;;5.05;4.57;;;;;;;16.92;100.00;97391.84;5061711;28;20230;-58
2023/06/24 00:04:27;;;;;;;5.28;4.40;;;;;;;16.86;100.00;97387.13;5065703;28;20533;-58
2023/06/24 00:06:58;;;;;;;4.63;4.32;;;;;;;16.92;100.00;97397.19;5062482;28;20202;-58
2023/06/24 00:09:25;;;;;;;4.82;4.43;;;;;;;16.91;100.00;97392.00;5058818;28;20234;-58
2023/06/24 00:11:51;;;;;;;4.72;4.32;;;;;;;16.86;100.00;97391.66;5062365;28;20202;-58
2023/06/24 00:14:21;;;;;;;5.35;4.57;;;;;;;16.92;100.00;97405.19;5052698;28;20207;-59
2023/06/24 00:16:51;;;;;;;5.32;4.57;;;;;;;16.85;100.00;97393.50;5063192;28;20372;-58
2023/06/24 00:19:19;;;;;;;4.75;4.35;;;;;;;16.91;100.00;97406.19;5064446;28;20206;-59
2023/06/24 00:21:47;;;;;;;4.72;4.40;;;;;;;16.83;100.00;97395.47;5058723;28;20243;-59
2023/06/24 00:24:14;;;;;;;5.32;4.32;;;;;;;16.80;100.00;97393.13;5062252;28;20230;-59
2023/06/24 00:26:41;;;;;;;5.13;4.68;;;;;;;16.78;100.00;97395.16;5064888;28;20541;-58
2023/06/24 00:29:11;;;;;;;4.70;4.35;;;;;;;16.75;100.00;97392.81;5066984;28;20690;-59
2023/06/24 00:31:39;;;;;;;5.07;4.15;;;;;;;16.75;100.00;97395.47;5063906;28;20301;-59
2023/06/24 00:34:06;;;;;;;5.53;4.78;;;;;;;16.74;100.00;97392.97;5060549;28;20203;-59
2023/06/24 00:36:35;;;;;;;5.95;5.43;;;;;;;16.76;100.00;97402.47;5068341;28;20203;-58
2023/06/24 00:39:03;;;;;;;5.05;4.53;;;;;;;16.75;100.00;97406.16;5065625;28;20207;-58
2023/06/24 00:41:30;;;;;;;6.75;4.32;;;;;;;16.67;100.00;97395.44;5067280;28;20217;-59
2023/06/24 00:43:58;;;;;;;4.97;4.47;;;;;;;16.64;100.00;97408.28;5059800;28;20596;-58
2023/06/24 00:46:25;;;;;;;4.93;4.53;;;;;;;16.60;100.00;97406.94;5065685;28;20203;-58
2023/06/24 00:48:55;;;;;;;5.05;4.65;;;;;;;16.60;100.00;97402.44;5065130;28;20505;-58
2023/06/24 00:51:26;;;;;;;4.63;4.32;;;;;;;16.57;100.00;97402.75;5064677;28;20203;-59
2023/06/24 00:53:53;;;;;;;5.15;4.75;;;;;;;16.54;100.00;97403.06;5067934;28;20256;-58
2023/06/24 00:56:22;;;;;;;5.40;4.78;;;;;;;16.63;100.00;97411.94;5062675;28;20665;-59
2023/06/24 00:58:49;;;;;;;4.97;4.68;;;;;;;16.62;100.00;97412.94;5068675;28;20229;-58
2023/06/24 01:01:16;;;;;;;5.10;4.70;;;;;;;16.58;100.00;97408.94;5069876;28;20237;-60
2023/06/24 01:03:44;;;;;;;7.32;4.63;;;;;;;16.52;100.00;97414.88;5065528;28;20234;-59
2023/06/24 01:06:13;;;;;;;4.93;4.53;;;;;;;16.57;100.00;97417.94;5065403;28;20536;-59
2023/06/24 01:08:40;;;;;;;4.80;4.40;;;;;;;16.58;100.00;97419.63;5069273;28;20227;-59
2023/06/24 01:11:07;;;;;;;5.18;4.78;;;;;;;16.53;100.00;97413.88;5055578;28;20199;-58
2023/06/24 01:13:33;;;;;;;4.95;4.60;;;;;;;16.53;100.00;97417.41;5058559;28;20252;-58
2023/06/24 01:16:03;;;;;;;6.80;5.00;;;;;;;16.51;100.00;97415.91;5059045;28;20207;-61
2023/06/24 01:18:35;;;;;;;5.22;4.80;;;;;;;16.49;100.00;97421.38;5069781;28;20203;-58
2023/06/24 01:21:04;;;;;;;6.28;4.85;;;;;;;16.44;100.00;97413.00;5076909;28;20235;-59
2023/06/24 01:24:04;;;;;;;5.22;4.85;;;;;;;16.39;100.00;97410.00;5057440;28;20219;-58
2023/06/24 01:26:58;;;;;;;5.10;4.68;;;;;;;16.42;100.00;97412.34;5071848;28;20203;-59
2023/06/24 01:29:45;;;;;;;6.55;4.80;;;;;;;16.45;100.00;97412.00;5050478;28;20258;-60
2023/06/24 01:32:15;;;;;;;5.28;4.78;;;;;;;16.38;100.00;97408.31;5061275;28;20203;-58
2023/06/24 01:34:45;;;;;;;6.15;5.13;;;;;;;16.34;100.00;97412.28;5056091;28;20195;-58
2023/06/24 01:37:18;;;;;;;5.13;4.72;;;;;;;16.31;100.00;97407.28;5056717;28;20231;-59
2023/06/24 01:39:47;;;;;;;5.40;4.90;;;;;;;16.29;100.00;97415.47;5056513;28;20239;-59
2023/06/24 01:42:16;;;;;;;6.25;4.97;;;;;;;16.24;100.00;97411.59;5059943;28;20212;-58
2023/06/24 01:44:44;;;;;;;5.53;5.00;;;;;;;16.25;100.00;97402.59;5055616;28;20241;-57
2023/06/24 01:47:15;;;;;;;5.68;4.95;;;;;;;16.25;100.00;97411.44;5060288;28;20203;-61
2023/06/24 01:49:42;;;;;;;5.50;5.05;;;;;;;16.21;100.00;97406.56;5055660;28;20207;-59
2023/06/24 01:52:09;;;;;;;5.85;5.35;;;;;;;16.20;100.00;97410.22;5050001;28;20281;-58
2023/06/24 01:54:37;;;;;;;6.05;5.55;;;;;;;16.18;100.00;97406.91;5055853;28;20199;-58
2023/06/24 01:57:05;;;;;;;6.32;4.93;;;;;;;16.13;100.00;97409.19;5059484;28;20267;-58
2023/06/24 01:59:32;;;;;;;5.40;4.90;;;;;;;16.03;100.00;97409.31;5056819;28;20693;-57
2023/06/24 02:02:00;;;;;;;5.40;4.90;;;;;;;16.09;100.00;97414.00;5055626;28;20222;-58
2023/06/24 02:04:30;;;;;;;5.18;4.78;;;;;;;16.06;100.00;97410.81;5054730;28;20226;-59
2023/06/24 02:06:59;;;;;;;6.32;5.10;;;;;;;16.07;100.00;97401.81;5055646;28;20281;-58
2023/06/24 02:09:26;;;;;;;5.60;5.20;;;;;;;16.06;100.00;97410.81;5049927;28;20211;-59
2023/06/24 02:11:54;;;;;;;7.40;5.57;;;;;;;15.98;100.00;97408.13;5054088;28;20199;-59
2023/06/24 02:14:20;;;;;;;7.05;5.45;;;;;;;15.84;100.00;97406.84;5055403;28;20207;-59
2023/06/24 02:16:48;;;;;;;5.32;4.93;;;;;;;15.89;100.00;97405.41;5055344;28;20221;-58
2023/06/24 02:19:17;;;;;;;5.85;5.32;;;;;;;15.81;100.00;97400.00;5061930;28;20207;-58
2023/06/24 02:21:51;;;;;;;5.53;5.00;;;;;;;15.90;100.00;97396.41;5053781;28;20231;-58
2023/06/24 02:24:18;;;;;;;5.80;5.40;;;;;;;15.86;100.00;97400.38;5054080;28;20257;-58
2023/06/24 02:26:45;;;;;;;5.97;5.47;;;;;;;15.86;100.00;97397.72;5055593;28;20281;-58
2023/06/24 02:29:12;;;;;;;6.05;5.45;;;;;;;15.84;100.00;97401.50;5067125;28;20217;-58
2023/06/24 02:31:38;;;;;;;6.13;5.63;;;;;;;15.81;100.00;97400.00;5055812;28;20218;-59
2023/06/24 02:34:06;;;;;;;5.80;5.30;;;;;;;15.81;100.00;97392.00;5055043;28;20200;-58
2023/06/24 02:36:33;;;;;;;5.43;5.03;;;;;;;15.79;100.00;97399.34;5055515;28;20211;-59
2023/06/24 02:39:01;;;;;;;6.05;5.40;;;;;;;15.76;100.00;97406.81;5055282;28;20214;-57
2023/06/24 02:41:28;;;;;;;6.30;5.80;;;;;;;15.71;100.00;97409.94;5054425;28;20195;-60
2023/06/24 02:43:54;;;;;;;7.78;6.00;;;;;;;15.71;100.00;97407.28;5055556;28;20235;-57
2023/06/24 02:46:22;;;;;;;6.77;5.93;;;;;;;15.71;100.00;97415.28;5067317;28;20210;-58
2023/06/24 02:48:49;;;;;;;6.83;5.70;;;;;;;15.71;100.00;97412.63;5057442;28;20261;-58
2023/06/24 02:51:16;;;;;;;6.13;5.53;;;;;;;15.71;100.00;97409.94;5075614;28;20210;-58
2023/06/24 02:53:44;;;;;;;7.38;6.68;;;;;;;15.68;100.00;97415.59;5058945;28;20218;-58
2023/06/24 02:56:13;;;;;;;6.13;5.63;;;;;;;15.68;100.00;97415.59;5041243;28;20566;-58
2023/06/24 02:58:40;;;;;;;6.57;6.00;;;;;;;15.61;100.00;97411.88;5072083;28;20695;-59
2023/06/24 03:01:08;;;;;;;6.57;6.07;;;;;;;15.53;100.00;97409.13;5074218;28;20213;-58
2023/06/24 03:03:35;;;;;;;6.57;5.97;;;;;;;15.57;100.00;97405.19;5088123;28;20289;-58
2023/06/24 03:06:03;;;;;;;6.85;6.20;;;;;;;15.54;100.00;97400.16;5079412;28;20634;-58
2023/06/24 03:08:30;;;;;;;7.20;6.50;;;;;;;15.58;100.00;97412.19;5056288;28;20222;-61
2023/06/24 03:10:57;;;;;;;6.70;6.10;;;;;;;15.54;100.00;97413.50;5059640;28;21854;-59
2023/06/24 03:13:25;;;;;;;6.93;6.32;;;;;;;15.45;100.00;97414.38;5049999;28;20206;-56
2023/06/24 03:15:55;;;;;;;6.78;6.18;;;;;;;15.47;100.00;97423.06;5070925;28;20203;-58
2023/06/24 03:18:21;;;;;;;6.63;6.03;;;;;;;15.45;100.00;97419.69;5065399;28;20211;-59
2023/06/24 03:20:52;;;;;;;6.70;6.00;;;;;;;15.42;100.00;97420.00;5040800;28;20690;-58
2023/06/24 03:23:18;;;;;;;6.80;6.20;;;;;;;15.39;100.00;97418.50;5065145;28;20198;-59
2023/06/24 03:25:46;;;;;;;7.20;6.50;;;;;;;15.41;100.00;97429.00;5060057;28;20271;-59
2023/06/24 03:28:13;;;;;;;7.03;6.37;;;;;;;15.45;100.00;97425.03;5066532;28;20183;-60
2023/06/24 03:30:43;;;;;;;6.20;5.60;;;;;;;15.36;100.00;97428.63;5093140;28;20210;-59
2023/06/24 03:33:09;;;;;;;8.37;6.50;;;;;;;15.37;100.00;97427.66;5076865;28;20211;-59
2023/06/24 03:35:37;;;;;;;6.93;6.33;;;;;;;15.36;100.00;97421.47;5046153;28;20207;-58
2023/06/24 03:38:04;;;;;;;7.13;6.30;;;;;;;15.30;100.00;97430.06;5046422;28;20206;-58
2023/06/24 03:40:31;;;;;;;7.03;6.47;;;;;;;15.33;100.00;97432.44;5046102;28;20217;-59
2023/06/24 03:42:58;;;;;;;7.13;6.43;;;;;;;15.37;100.00;97432.97;5052724;28;20208;-58
2023/06/24 03:45:25;;;;;;;7.07;6.47;;;;;;;15.29;100.00;97430.25;5054516;28;20223;-59
2023/06/24 03:47:52;;;;;;;7.30;6.70;;;;;;;15.35;100.00;97429.63;5053989;28;20233;-59
2023/06/24 03:50:20;;;;;;;7.17;6.47;;;;;;;15.29;100.00;97424.91;5054179;28;20931;-59
2023/06/24 03:52:47;;;;;;;6.63;6.00;;;;;;;15.36;100.00;97431.31;5054586;28;20583;-58
2023/06/24 03:55:14;;;;;;;7.77;7.07;;;;;;;15.32;100.00;97429.94;5053884;28;20214;-58
2023/06/24 03:57:41;;;;;;;7.07;6.20;;;;;;;15.31;100.00;97436.25;5053435;28;20222;-58
2023/06/24 04:00:14;;;;;;;6.67;6.13;;;;;;;15.31;100.00;97428.25;5054311;28;20215;-59
2023/06/24 04:02:41;;;;;;;6.63;6.03;;;;;;;15.35;100.00;97435.78;5054368;28;20207;-59
2023/06/24 04:05:10;;;;;;;6.80;6.10;;;;;;;15.40;100.00;97443.34;5053963;28;20674;-58
2023/06/24 04:07:39;;;;;;;6.80;6.20;;;;;;;15.44;100.00;97442.03;5043953;28;20286;-59
2023/06/24 04:10:08;;;;;;;6.70;5.80;;;;;;;15.46;100.00;97450.72;5054230;28;20531;-58
2023/06/24 04:12:37;;;;;;;6.40;5.78;;;;;;;15.51;100.00;97451.13;5053072;28;20209;-59
2023/06/24 04:15:07;;;;;;;8.00;6.40;;;;;;;15.56;100.00;97443.50;5054500;28;20211;-58
2023/06/24 04:17:33;;;;;;;7.00;6.30;;;;;;;15.63;100.00;97455.22;5053935;28;20221;-58
2023/06/24 04:20:02;;;;;;;6.63;6.03;;;;;;;15.61;100.00;97451.88;5053857;28;20300;-59
2023/06/24 04:22:30;;;;;;;6.50;5.90;;;;;;;15.69;100.00;97449.28;5053198;28;20207;-59
2023/06/24 04:24:59;;;;;;;7.00;5.85;;;;;;;15.73;100.00;97449.81;5040741;28;20223;-59
2023/06/24 04:27:25;;;;;;;6.65;5.90;;;;;;;15.81;100.00;97453.34;5050216;28;20214;-58
2023/06/24 04:29:52;;;;;;;9.30;6.27;;;;;;;15.84;100.00;97452.19;5043915;28;20242;-59
2023/06/24 04:32:19;;;;;;;6.90;6.17;;;;;;;15.91;100.00;97453.25;5045178;28;20687;-59
2023/06/24 04:34:45;;;;;;;6.65;6.15;;;;;;;15.98;100.00;97453.47;5049818;28;20203;-58
2023/06/24 04:37:14;;;;;;;7.13;6.53;;;;;;;16.05;100.00;97451.84;5050353;28;20595;-59
2023/06/24 04:39:42;;;;;;;7.90;6.32;;;;;;;16.10;100.00;97452.22;5057106;28;20214;-59
2023/06/24 04:42:09;;;;;;;7.18;6.47;;;;;;;16.19;100.00;97464.63;5049800;28;20569;-60
2023/06/24 04:44:36;;;;;;;7.13;6.47;;;;;;;16.28;100.00;97461.00;5050393;28;20290;-58
2023/06/24 04:47:04;;;;;;;7.30;6.70;;;;;;;16.36;100.00;97455.69;5057610;28;20210;-58
2023/06/24 04:49:30;;;;;;;7.03;6.32;;;;;;;16.45;100.00;97457.41;5057116;28;20572;-58
2023/06/24 04:51:57;;;;;;;6.88;6.10;;;;;;;16.58;100.00;97457.81;5057638;28;20229;-59
2023/06/24 04:54:25;;;;;;;7.70;6.35;;;;;;;16.62;100.00;97459.19;5057045;28;20222;-59
2023/06/24 04:56:55;;;;;;;7.20;6.35;;;;;;;16.76;100.00;97463.06;5055498;28;20628;-59
2023/06/24 04:59:22;;;;;;;7.03;6.43;;;;;;;16.77;100.00;97468.25;5050131;28;20227;-59
2023/06/24 05:01:49;;;;;;;6.32;5.80;;;;;;;16.90;100.00;97462.44;5044946;28;20229;-58
2023/06/24 05:04:16;;;;;;;5.97;5.57;;;;;;;16.96;100.00;97464.50;5045713;28;20232;-59
2023/06/24 05:06:45;;;;;;;7.65;6.25;;;;;;;17.02;100.00;97460.31;5057316;28;20214;-59
2023/06/24 05:09:13;;;;;;;6.70;6.10;;;;;;;17.12;100.00;97463.69;5054922;28;20211;-59
2023/06/24 05:11:40;;;;;;;7.32;6.50;;;;;;;17.20;100.00;97474.41;5056242;28;20200;-60
2023/06/24 05:14:07;;;;;;;6.00;5.55;;;;;;;17.37;100.00;97478.75;5056508;28;20199;-59
2023/06/24 05:16:35;;;;;;;6.57;5.97;;;;;;;17.52;100.00;97477.13;5057133;28;20214;-59
2023/06/24 05:19:02;;;;;;;6.65;6.05;;;;;;;17.69;100.00;97480.66;5055938;28;20560;-59
2023/06/24 05:21:31;;;;;;;7.00;6.40;;;;;;;17.81;100.00;97482.84;5056684;28;20238;-59
2023/06/24 05:23:57;;;;;;;6.60;6.10;;;;;;;17.96;100.00;97487.53;5054439;28;20234;-59
2023/06/24 05:26:24;;;;;;;7.15;6.55;;;;;;;18.07;100.00;97488.00;5051045;28;20543;-58
2023/06/24 05:28:51;;;;;;;6.47;5.97;;;;;;;18.20;100.00;97482.16;5056609;28;20207;-58
2023/06/24 05:31:19;;;;;;;6.97;6.20;;;;;;;18.28;98.75;97482.94;5061759;28;20639;-58
2023/06/24 05:33:45;;;;;;;6.03;5.53;;;;;;;18.38;99.44;97477.44;5057013;28;20218;-58
2023/06/24 05:36:12;;;;;;;6.32;5.82;;;;;;;18.58;99.12;97476.03;5055963;28;20203;-59
2023/06/24 05:38:41;;;;;;;7.32;6.05;;;;;;;18.68;95.89;97484.72;5065891;28;20199;-58
2023/06/24 05:41:08;;;;;;;7.00;6.30;;;;;;;18.80;94.11;97480.66;5069368;28;20233;-59
2023/06/24 05:43:35;;;;;;;7.25;6.63;;;;;;;18.90;91.64;97477.75;5076777;28;20283;-58
2023/06/24 05:46:01;;;;;;;6.15;5.65;;;;;;;19.06;90.05;97484.91;5056735;28;20223;-59
2023/06/24 05:48:29;;;;;;;7.05;6.25;;;;;;;19.08;88.27;97485.53;5049740;28;20218;-59
2023/06/24 05:50:56;;;;;;;7.20;6.05;;;;;;;19.21;89.92;97481.28;5064673;28;20206;-59
2023/06/24 05:53:23;;;;;;;7.18;6.32;;;;;;;19.38;88.54;97496.25;5057414;28;20215;-59
2023/06/24 05:55:49;;;;;;;7.38;6.70;;;;;;;19.56;88.50;97484.44;5062516;28;20207;-58
2023/06/24 05:58:15;;;;;;;8.73;6.93;;;;;;;19.72;87.38;97485.16;5055244;28;20671;-59
2023/06/24 06:00:42;;;;;;;8.30;7.03;;;;;;;19.84;85.47;97490.94;5058167;28;20667;-59
2023/06/24 06:03:09;;;;;;;7.57;6.82;;;;;;;20.02;85.32;97493.28;5051161;28;20212;-59
2023/06/24 06:05:38;;;;;;;6.03;5.47;;;;;;;20.20;84.61;97483.06;5041689;28;20228;-58
2023/06/24 06:08:04;;;;;;;5.97;5.57;;;;;;;20.36;83.93;97488.31;5056057;28;20214;-59
2023/06/24 06:10:31;;;;;;;6.43;5.82;;;;;;;20.56;84.88;97477.84;5055606;28;20215;-59
2023/06/24 06:12:57;;;;;;;7.05;5.93;;;;;;;20.71;82.05;97484.91;5055221;28;20207;-58
2023/06/24 06:15:24;;;;;;;7.70;5.53;;;;;;;20.84;81.13;97482.38;5057468;28;20203;-59
2023/06/24 06:17:52;;;;;;;8.00;6.60;;;;;;;21.01;81.13;97482.19;5055431;28;20817;-59
2023/06/24 06:20:19;;;;;;;6.38;5.78;;;;;;;21.22;80.65;97484.97;5055276;28;20235;-58
2023/06/24 06:22:51;;;;;;;6.85;6.25;;;;;;;21.31;76.09;97483.81;5055146;28;20203;-58
2023/06/24 06:25:17;;;;;;;7.03;6.43;;;;;;;21.39;76.43;97481.03;5055623;28;20230;-59
2023/06/24 06:27:45;;;;;;;6.07;5.50;;;;;;;21.60;76.57;97477.50;5055460;28;20222;-59
2023/06/24 06:30:13;;;;;;;6.20;5.70;;;;;;;21.70;75.72;97476.16;5055012;28;20207;-59
2023/06/24 06:32:40;;;;;;;6.25;5.68;;;;;;;21.79;75.61;97485.75;5049085;28;20218;-59
2023/06/24 06:35:07;;;;;;;6.43;5.93;;;;;;;21.87;74.23;97473.19;5055630;28;20594;-58
2023/06/24 06:37:34;;;;;;;6.88;5.70;;;;;;;21.95;74.34;97475.78;5054580;28;20294;-59
2023/06/24 06:40:05;;;;;;;6.97;5.90;;;;;;;22.26;74.78;97473.56;5055274;28;20285;-59
2023/06/24 06:42:32;;;;;;;6.70;6.15;;;;;;;22.18;71.75;97471.00;5054705;28;20640;-59
2023/06/24 06:44:58;;;;;;;6.43;5.82;;;;;;;;;;5056773;28;20237;-58
2023/06/24 06:47:25;;;;;;;7.22;6.55;;;;;;;22.37;70.50;97473.03;5049240;28;20204;-59
2023/06/24 06:49:51;;;;;;;6.63;5.57;;;;;;;22.64;72.42;97469.44;5052171;28;20655;-59
2023/06/24 06:52:19;;;;;;;5.82;5.43;;;;;;;22.90;72.99;97465.28;5054899;28;20207;-60
2023/06/24 06:54:47;;;;;;;6.72;6.03;;;;;;;22.81;69.52;97475.41;5057989;28;20206;-58
2023/06/24 06:57:15;;;;;;;6.32;5.82;;;;;;;22.89;69.68;97474.38;5037288;28;20208;-58
2023/06/24 06:59:42;;;;;;;6.00;5.57;;;;;;;23.17;70.00;97465.16;5049806;28;20207;-59
2023/06/24 07:02:08;;;;;;;6.93;6.22;;;;;;;23.22;68.41;97468.09;5054867;28;20207;-59
2023/06/24 07:04:35;;;;;;;6.05;5.55;;;;;;;23.52;69.61;97463.25;5054745;28;20256;-59
2023/06/24 07:07:02;;;;;;;6.80;6.20;;;;;;;23.26;67.04;97465.84;5054848;28;20207;-59
2023/06/24 07:09:29;;;;;;;6.00;5.50;;;;;;;23.54;66.42;97458.47;5054113;28;20226;-58
2023/06/24 07:11:55;;;;;;;6.63;5.97;;;;;;;23.73;66.65;97457.69;5054422;28;20221;-58
2023/06/24 07:14:23;;;;;;;5.57;5.13;;;;;;;23.92;67.56;97455.19;5053827;28;20218;-59
2023/06/24 07:16:51;;;;;;;5.80;5.40;;;;;;;24.28;68.91;97455.63;5054845;28;20233;-59
2023/06/24 07:19:18;;;;;;;6.38;5.28;;;;;;;24.17;62.54;97442.75;5054535;28;20238;-60
2023/06/24 07:21:45;;;;;;;5.35;4.95;;;;;;;24.12;62.64;97451.47;5054064;28;20583;-59
2023/06/24 07:24:11;;;;;;;5.60;5.20;;;;;;;24.35;62.41;97445.66;5053955;28;20206;-59
2023/06/24 07:26:39;;;;;;;7.20;5.35;;;;;;;24.63;64.77;97446.22;5046802;28;20228;-59
2023/06/24 07:29:07;;;;;;;6.10;5.50;;;;;;;24.68;63.06;97451.00;5055120;28;20635;-59
2023/06/24 07:31:35;;;;;;;6.10;5.47;;;;;;;24.74;62.23;97442.84;5054896;28;20265;-58
2023/06/24 07:34:02;;;;;;;5.93;5.43;;;;;;;24.88;62.16;97442.84;5048531;28;20218;-58
2023/06/24 07:36:28;;;;;;;5.78;5.28;;;;;;;25.05;64.37;97444.00;5054470;28;20290;-58
2023/06/24 07:38:56;;;;;;;5.95;5.35;;;;;;;25.10;62.98;97439.63;5054419;28;20272;-59
2023/06/24 07:41:24;;;;;;;5.45;4.95;;;;;;;25.24;62.15;97441.22;5054474;28;20220;-59
2023/06/24 07:43:50;;;;;;;6.07;5.43;;;;;;;25.40;62.12;97445.28;5041788;28;20268;-59
2023/06/24 07:46:17;;;;;;;5.82;5.35;;;;;;;25.46;60.88;97439.03;5054034;28;20227;-59
2023/06/24 07:48:49;;;;;;;5.75;5.28;;;;;;;25.20;60.50;97436.47;5047105;28;20207;-60
2023/06/24 07:51:15;;;;;;;5.43;5.03;;;;;;;25.48;61.74;97434.22;5074268;28;20203;-60
2023/06/24 07:53:42;;;;;;;6.18;5.32;;;;;;;25.76;61.92;97423.00;5079697;28;20214;-60
2023/06/24 07:56:09;;;;;;;6.90;5.63;;;;;;;25.75;60.80;97426.78;5056381;28;20636;-58
2023/06/24 07:58:37;;;;;;;5.97;5.45;;;;;;;25.91;59.58;97409.16;5053489;28;20631;-59
2023/06/24 08:01:04;;;;;;;5.43;5.03;;;;;;;25.86;57.90;97417.97;5051967;28;20199;-59
2023/06/24 08:03:31;;;;;;;5.55;5.00;;;;;;;25.96;55.67;97414.75;5056539;28;20203;-58
2023/06/24 08:05:58;;;;;;;4.93;4.53;;;;;;;25.89;55.95;97405.84;5058499;28;20238;-60
2023/06/24 08:08:25;;;;;;;4.80;4.50;;;;;;;25.72;53.73;97408.25;5058312;28;20211;-58
2023/06/24 08:10:54;;;;;;;6.13;4.57;;;;;;;25.85;55.96;97410.03;5048499;28;20203;-60
2023/06/24 08:13:20;;;;;;;5.28;4.80;;;;;;;26.18;54.49;97399.78;5057031;28;20210;-60
2023/06/24 08:15:50;;;;;;;5.55;4.88;;;;;;;26.28;55.63;97400.09;5058113;28;20199;-59
2023/06/24 08:18:17;;;;;;;5.10;4.55;;;;;;;26.38;56.85;97400.41;5058117;28;20219;-59
2023/06/24 08:20:44;;;;;;;5.72;5.22;;;;;;;26.45;54.84;97395.75;5057535;28;20246;-60
2023/06/24 08:23:11;;;;;;;6.15;4.88;;;;;;;26.49;55.38;97396.97;5058319;28;20219;-59
2023/06/24 08:25:38;;;;;;;5.50;5.00;;;;;;;26.69;55.76;97397.56;5057694;28;20246;-58
2023/06/24 08:28:04;;;;;;;5.68;5.10;;;;;;;26.62;54.86;97383.22;5054950;28;20196;-58
2023/06/24 08:30:33;;;;;;;5.53;5.03;;;;;;;26.69;54.82;97381.28;5043688;28;20215;-59
2023/06/24 08:33:01;;;;;;;5.45;5.03;;;;;;;26.89;56.16;97377.53;5047261;28;20209;-60
2023/06/24 08:35:28;;;;;;;4.70;4.35;;;;;;;26.81;54.09;97386.78;5057464;28;20742;-60
2023/06/24 08:37:54;;;;;;;5.28;4.78;;;;;;;26.80;52.95;97387.00;5057358;28;20279;-59
2023/06/24 08:40:22;;;;;;;4.90;4.50;;;;;;;26.77;52.48;97382.84;5055640;28;20207;-59
2023/06/24 08:42:48;;;;;;;4.78;4.47;;;;;;;26.68;54.43;97382.31;5043323;28;20199;-58
2023/06/24 08:45:15;;;;;;;4.95;4.55;;;;;;;26.33;51.73;97375.81;5042252;28;20243;-60
2023/06/24 08:47:41;;;;;;;5.00;4.70;;;;;;;26.54;53.14;97382.69;5053717;28;20213;-59
2023/06/24 08:50:12;;;;;;;4.38;4.07;;;;;;;26.98;54.88;97384.28;5063182;28;20214;-59
2023/06/24 08:52:39;;;;;;;4.90;4.60;;;;;;;26.86;51.00;97386.09;5051081;28;20210;-59
2023/06/24 08:55:08;;;;;;;4.63;4.22;;;;;;;26.88;51.53;97378.59;5057548;28;20199;-59
2023/06/24 08:57:35;;;;;;;4.53;4.22;;;;;;;26.73;51.94;97377.06;5057074;28;20229;-60
2023/06/24 09:00:03;;;;;;;4.20;3.80;;;;;;;27.10;52.87;97385.19;5057493;28;20574;-58
2023/06/24 09:02:32;;;;;;;4.90;4.50;;;;;;;27.08;51.91;97379.97;5059662;28;20206;-59
2023/06/24 09:05:00;;;;;;;4.47;3.90;;;;;;;27.27;51.31;97383.50;5052487;28;20214;-60
2023/06/24 09:07:28;;;;;;;5.50;5.00;;;;;;;27.09;51.37;97380.81;5048396;28;20214;-60
2023/06/24 09:09:55;;;;;;;4.65;4.25;;;;;;;27.20;51.62;97369.19;5051486;28;20199;-60
2023/06/24 09:12:22;;;;;;;5.07;4.60;;;;;;;27.33;51.36;97377.13;5054071;28;20571;-60
2023/06/24 09:14:51;;;;;;;5.35;4.85;;;;;;;26.85;51.28;97369.03;5049309;28;20200;-60
2023/06/24 09:17:18;;;;;;;4.85;4.40;;;;;;;27.09;51.69;97375.38;5049581;28;20211;-60
2023/06/24 09:19:47;;;;;;;5.45;4.95;;;;;;;26.99;51.47;97365.06;5053085;28;20234;-59
2023/06/24 09:22:17;;;;;;;5.82;5.32;;;;;;;27.16;53.03;97365.25;5049865;28;20205;-60
2023/06/24 09:24:46;;;;;;;5.13;4.63;;;;;;;27.10;52.56;97360.75;5048397;28;20230;-60
2023/06/24 09:27:13;;;;;;;5.18;4.72;;;;;;;27.17;52.26;97359.56;5048696;28;20220;-60
2023/06/24 09:29:42;;;;;;;5.05;4.75;;;;;;;27.27;53.43;97361.75;5048520;28;20205;-61
2023/06/24 09:32:11;;;;;;;4.47;4.05;;;;;;;27.30;49.37;97358.56;5052854;28;20631;-59
2023/06/24 09:34:38;;;;;;;6.15;4.03;;;;;;;26.82;46.92;97360.47;5051114;28;20259;-59
2023/06/24 09:37:04;;;;;;;4.45;4.15;;;;;;;26.80;48.34;97349.81;5041453;28;20191;-60
2023/06/24 09:39:36;;;;;;;4.43;4.13;;;;;;;26.84;47.27;97356.50;5048875;28;20211;-59
2023/06/24 09:42:03;;;;;;;4.15;3.85;;;;;;;26.66;48.18;97359.19;5047555;28;20208;-60
2023/06/24 09:44:30;;;;;;;5.22;3.75;;;;;;;26.90;48.04;97352.84;5060448;28;20211;-61
2023/06/24 09:46:57;;;;;;;4.53;4.13;;;;;;;27.08;47.26;97352.81;5060716;28;20230;-60
2023/06/24 09:49:24;;;;;;;3.72;3.42;;;;;;;27.33;48.60;97347.25;5044561;28;20662;-60
2023/06/24 09:51:56;;;;;;;3.80;3.50;;;;;;;27.18;47.03;97335.97;5071892;28;20223;-60
2023/06/24 09:54:22;;;;;;;3.55;3.25;;;;;;;27.57;47.64;97327.25;5046059;28;20192;-61
2023/06/24 09:56:50;;;;;;;4.38;3.20;;;;;;;27.74;45.78;97329.31;5070653;28;20191;-60
2023/06/24 09:59:19;;;;;;;4.60;3.50;;;;;;;27.45;45.47;97334.56;5075368;28;20191;-59
2023/06/24 10:01:46;;;;;;;4.10;3.70;;;;;;;27.23;44.19;97332.56;5076359;28;20678;-59
2023/06/24 10:04:17;;;;;;;3.25;3.05;;;;;;;27.12;46.76;97328.75;5064319;28;20191;-61
2023/06/24 10:06:44;;;;;;;4.45;3.30;;;;;;;27.52;47.19;97321.72;5059398;28;20236;-60
2023/06/24 10:09:13;;;;;;;3.65;3.42;;;;;;;27.51;45.50;97328.19;5058362;28;20219;-59
2023/06/24 10:11:39;;;;;;;3.60;3.30;;;;;;;27.46;44.58;97338.91;5057838;28;20280;-59
2023/06/24 10:14:06;;;;;;;3.47;3.28;;;;;;;27.44;45.99;97330.16;5055228;28;20222;-59
2023/06/24 10:16:32;;;;;;;3.28;3.08;;;;;;;27.65;46.96;97326.91;5055606;28;20231;-61
2023/06/24 10:19:02;;;;;;;3.40;3.10;;;;;;;27.81;46.32;97325.38;5055547;28;20218;-65
2023/06/24 10:21:50;;;;;;;3.08;2.88;;;;;;;27.81;46.10;97319.94;5055416;28;20279;-62
2023/06/24 10:24:29;;;;;;;3.63;2.72;;;;;;;27.68;45.05;97315.56;5050223;28;20504;-61
2023/06/24 10:26:56;;;;;;;2.90;2.67;;;;;;;27.66;44.64;97322.31;5047363;28;20628;-61
2023/06/24 10:29:31;;;;;;;2.78;2.67;;;;;;;27.82;45.18;97312.63;5053622;28;20513;-61
2023/06/24 10:32:03;;;;;;;3.15;2.72;;;;;;;27.57;43.07;97316.38;5055132;28;20203;-62
2023/06/24 10:34:32;;;;;;;2.58;2.38;;;;;;;27.67;43.53;97308.47;5055028;28;20218;-64
2023/06/24 10:37:01;;;;;;;3.10;2.90;;;;;;;27.89;41.55;97300.56;5055398;28;20215;-63
2023/06/24 10:39:48;;;;;;;3.50;3.05;;;;;;;27.95;45.51;97296.91;5051582;28;20306;-64
2023/06/24 10:42:41;;;;;;;3.13;2.92;;;;;;;27.97;45.20;97304.81;5055449;28;20297;-64
2023/06/24 10:45:15;;;;;;;3.15;2.95;;;;;;;27.66;44.64;97301.41;5055110;28;20203;-61
2023/06/24 10:47:45;;;;;;;3.38;3.17;;;;;;;28.02;44.29;97299.53;5055029;28;20228;-65
2023/06/24 10:50:13;;;;;;;3.28;2.92;;;;;;;28.08;42.19;97293.16;5054374;28;20218;-67
2023/06/24 10:52:43;;;;;;;3.10;2.90;;;;;;;27.70;43.33;97294.41;5055071;28;20211;-62
2023/06/24 10:55:10;;;;;;;3.10;2.90;;;;;;;27.74;44.87;97285.81;5054734;28;20218;-62
2023/06/24 10:57:37;;;;;;;3.20;3.00;;;;;;;27.67;43.06;97292.16;5054455;28;20202;-64
2023/06/24 11:00:04;;;;;;;3.28;3.08;;;;;;;27.77;43.18;97277.19;5059831;28;20203;-64
2023/06/24 11:02:31;;;;;;;3.00;2.80;;;;;;;28.07;42.54;97272.47;5046972;28;20238;-65
2023/06/24 11:04:58;;;;;;;3.63;3.10;;;;;;;27.93;40.68;97274.56;5054930;28;20207;-66
2023/06/24 11:07:26;;;;;;;3.00;2.90;;;;;;;28.10;39.91;97267.38;5055094;28;20235;-63
2023/06/24 11:09:54;;;;;;;3.30;3.10;;;;;;;28.02;42.81;97264.97;5050530;28;20191;-64
2023/06/24 11:12:24;;;;;;;3.25;2.95;;;;;;;27.95;42.18;97269.72;5054672;28;20203;-63
2023/06/24 11:14:50;;;;;;;3.10;2.90;;;;;;;27.76;40.32;97259.22;5050320;28;20206;-67
2023/06/24 11:17:17;;;;;;;3.20;3.00;;;;;;;27.89;39.61;97256.25;5067960;28;20210;-61
2023/06/24 11:19:43;;;;;;;3.22;3.03;;;;;;;28.02;40.09;97256.81;5047158;28;20577;-63
2023/06/24 11:22:10;;;;;;;3.63;3.15;;;;;;;28.12;39.89;97250.81;5063914;28;20214;-65
2023/06/24 11:24:39;;;;;;;3.40;3.20;;;;;;;28.23;40.14;97255.41;5046064;28;20208;-61
2023/06/24 11:27:07;;;;;;;3.25;3.05;;;;;;;28.05;37.78;97244.66;5037471;28;20331;-64
2023/06/24 11:29:34;;;;;;;3.08;2.88;;;;;;;28.29;38.52;97246.28;5052158;28;20230;-64
2023/06/24 11:32:02;;;;;;;3.60;3.40;;;;;;;27.76;39.69;97234.75;5058638;28;20240;-64
2023/06/24 11:34:29;;;;;;;3.50;3.20;;;;;;;28.23;41.43;97236.38;5049304;28;20224;-64